createdAt,value
2018-05-18T00:13:43.014Z,19.57
2018-05-18T00:34:17.328Z,12.90
2018-05-18T00:54:50.241Z,24.80
2018-05-18T01:15:29.793Z,20.50
2018-05-18T01:36:06.991Z,15.60
2018-05-18T01:56:47.115Z,21.03
2018-05-18T02:35:27.743Z,12.60
2018-05-18T02:56:02.697Z,16.83
2018-05-18T03:16:37.363Z,20.50
2018-05-18T03:37:11.716Z,19.43
2018-05-18T03:57:49.147Z,23.07
2018-05-18T04:18:23.178Z,19.87
2018-05-18T04:38:58.149Z,65.10
2018-05-18T04:59:31.575Z,89.07
2018-05-18T05:20:04.694Z,74.67
2018-05-18T05:40:38.123Z,68.57
2018-05-18T06:01:10.324Z,61.80
2018-05-18T06:21:47.436Z,68.03
2018-05-18T06:42:21.902Z,69.90
2018-05-18T07:02:57.292Z,57.37
2018-05-18T07:23:31.348Z,52.80
2018-05-18T07:44:05.454Z,60.03
2018-05-18T08:04:38.576Z,52.43
2018-05-18T08:25:15.692Z,43.73
2018-05-18T08:45:54.038Z,48.80
2018-05-18T09:06:28.656Z,45.33
2018-05-18T09:27:06.993Z,48.80
2018-05-18T09:47:43.010Z,37.10
2018-05-18T10:08:16.967Z,26.30
2018-05-18T10:28:52.237Z,24.20
2018-05-18T10:49:25.739Z,21.57
2018-05-18T11:09:58.488Z,14.80
2018-05-18T11:30:31.911Z,16.03
2018-05-18T11:51:07.187Z,19.87
2018-05-18T12:11:40.302Z,10.43
2018-05-18T12:32:12.742Z,19.07
2018-05-18T12:52:44.938Z,24.07
2018-05-18T13:13:18.750Z,14.30
2018-05-18T13:33:52.443Z,20.50
2018-05-18T13:54:24.376Z,24.57
2018-05-18T14:14:55.942Z,17.80
2018-05-18T14:53:27.375Z,29.03
2018-05-18T15:14:03.573Z,21.77
2018-05-18T15:34:38.842Z,20.50
2018-05-18T15:55:15.032Z,18.70
2018-05-18T16:15:47.237Z,19.03
2018-05-18T16:36:23.430Z,19.30
2018-05-18T16:56:58.014Z,12.73
2018-05-18T17:17:30.900Z,22.50
2018-05-18T17:38:04.446Z,12.50
2018-05-18T17:58:36.223Z,20.97
2018-05-18T18:19:10.574Z,26.93
2018-05-18T18:39:42.772Z,15.73
2018-05-18T19:00:19.317Z,11.80
2018-05-18T19:20:52.090Z,15.77
2018-05-18T19:41:29.508Z,13.73
2018-05-18T20:02:03.552Z,15.03
2018-05-18T20:22:36.988Z,22.47
2018-05-18T20:43:10.106Z,16.43
2018-05-18T21:03:43.225Z,21.23
2018-05-18T21:24:18.843Z,15.90
2018-05-18T21:44:52.861Z,19.20
2018-05-18T22:05:28.416Z,12.93
2018-05-18T22:26:04.309Z,22.83
2018-05-18T22:46:38.353Z,21.00
2018-05-18T23:07:12.700Z,17.33
2018-05-18T23:27:43.982Z,20.13
2018-05-18T23:48:18.336Z,16.83
